Terminal Aerodrome Forecast
Issued by NWS

Home | Current Version | Previous Version | Text Only | Print | Product List | Glossary On
Versions: 1 2 3 4 5 6 7 8 9 10 11 12 13 14 15 16 17 18 19 20 21 22 23 24 25 26 27 28 29 30 31 32 33 34 35 36 37 38 39 40
000
FTUS43 KDLH 010800 AAA
TAFBRD
TAF AMD
KBRD 010804Z 0108/0206 14008KT P6SM BKN020
     FM011000 15008KT 6SM BR BKN015 OVC040
     FM011600 16012KT P6SM BKN030
     FM012200 18008KT P6SM OVC022
     FM020200 VRB04KT 6SM -DZ OVC012=

USA.gov is the U.S. government's official web portal to all federal, state and local government web resources and services.